Time;durP1;ratioP1;P1;durP2;ratioP2;P2;SDS_P1;SDS_P2;PMS_P1;PMS_P2;Temp;Humidity;BMP_temperature;BMP_pressure;BME280_temperature;BME280_humidity;BME280_pressure;Samples;Min_cycle;Max_cycle;Signal;HPM_P1;HPM_P2
2023/03/12 00:00:48;;;;;;;0.80;0.80;;;-8.50;99.90;;;;;;5037258;28;20212;-73
2023/03/12 00:03:14;;;;;;;0.90;0.90;;;-8.60;99.90;;;;;;5054391;28;20316;-73
2023/03/12 00:05:41;;;;;;;0.90;0.90;;;-8.60;99.90;;;;;;5037466;28;20201;-73
2023/03/12 00:08:08;;;;;;;1.00;1.00;;;-8.70;99.90;;;;;;5054702;28;20233;-73
2023/03/12 00:10:34;;;;;;;1.00;1.00;;;-8.70;99.90;;;;;;5054715;28;20300;-72
2023/03/12 00:13:00;;;;;;;0.90;0.90;;;-8.80;99.90;;;;;;5049512;28;20194;-74
2023/03/12 00:15:27;;;;;;;0.90;0.90;;;-8.80;99.90;;;;;;5034703;28;20272;-73
2023/03/12 00:17:53;;;;;;;0.90;0.90;;;-8.70;99.90;;;;;;5034857;28;20198;-72
2023/03/12 00:20:19;;;;;;;1.00;1.00;;;-8.40;99.90;;;;;;5033506;28;20256;-72
2023/03/12 00:22:45;;;;;;;1.00;1.00;;;-8.10;99.90;;;;;;5017065;28;20216;-73
2023/03/12 00:25:14;;;;;;;1.00;1.00;;;-8.00;99.90;;;;;;5052746;28;20377;-72
2023/03/12 00:27:40;;;;;;;1.00;1.00;;;-8.10;99.90;;;;;;5054670;28;20201;-73
2023/03/12 00:30:07;;;;;;;0.90;0.90;;;-8.10;99.90;;;;;;5054565;28;20282;-72
2023/03/12 00:32:34;;;;;;;0.90;0.90;;;-8.10;99.90;;;;;;5054283;28;20701;-72
2023/03/12 00:35:20;;;;;;;1.00;1.00;;;-8.00;99.90;;;;;;5054341;28;20702;-72
2023/03/12 00:37:45;;;;;;;0.90;0.90;;;-7.90;99.90;;;;;;5054583;28;20197;-72
2023/03/12 00:40:12;;;;;;;0.83;0.83;;;-7.90;99.90;;;;;;5054697;28;20323;-73
2023/03/12 00:42:38;;;;;;;0.90;0.90;;;-8.00;99.90;;;;;;5054316;28;20201;-72
2023/03/12 00:45:04;;;;;;;1.00;1.00;;;-8.20;99.90;;;;;;5053928;28;20292;-72
2023/03/12 00:47:29;;;;;;;0.80;0.80;;;-8.10;99.90;;;;;;5025380;28;20209;-72
2023/03/12 00:49:55;;;;;;;0.90;0.90;;;-8.30;99.90;;;;;;5054137;28;20259;-72
2023/03/12 00:52:21;;;;;;;0.90;0.90;;;-8.40;99.90;;;;;;5053921;28;20186;-73
2023/03/12 00:54:47;;;;;;;0.90;0.90;;;-8.40;99.90;;;;;;5054138;28;20268;-74
2023/03/12 00:57:12;;;;;;;0.80;0.80;;;-8.50;99.90;;;;;;5054179;28;20189;-73
2023/03/12 00:59:39;;;;;;;0.90;0.90;;;-8.40;99.90;;;;;;5036054;28;20690;-73
2023/03/12 01:02:06;;;;;;;0.90;0.90;;;-8.40;99.90;;;;;;5036053;28;20618;-73
2023/03/12 01:04:35;;;;;;;0.80;0.80;;;-8.60;99.90;;;;;;5053572;28;20759;-73
2023/03/12 01:07:01;;;;;;;0.90;0.90;;;-8.70;99.90;;;;;;5053685;28;20248;-74
2023/03/12 01:09:28;;;;;;;0.80;0.80;;;-8.80;99.90;;;;;;5052681;28;20688;-74
2023/03/12 01:11:55;;;;;;;0.87;0.87;;;-8.80;99.90;;;;;;5053979;28;20201;-72
2023/03/12 01:14:21;;;;;;;0.90;0.90;;;-8.70;99.90;;;;;;5035800;28;20558;-72
2023/03/12 01:16:46;;;;;;;0.90;0.90;;;-8.60;99.90;;;;;;5053764;28;20194;-72
2023/03/12 01:19:12;;;;;;;0.90;0.90;;;-8.50;99.90;;;;;;5053662;28;20192;-73
2023/03/12 01:21:38;;;;;;;0.90;0.90;;;-8.40;99.90;;;;;;5035663;28;20343;-73
2023/03/12 01:24:04;;;;;;;0.90;0.90;;;-8.50;99.90;;;;;;5053550;28;20250;-73
2023/03/12 01:26:29;;;;;;;0.90;0.90;;;-8.60;99.90;;;;;;5052743;28;20193;-73
2023/03/12 01:28:55;;;;;;;0.80;0.80;;;-8.60;99.90;;;;;;5053577;28;20205;-73
2023/03/12 01:31:21;;;;;;;0.90;0.90;;;-8.60;99.90;;;;;;5053179;28;20209;-73
2023/03/12 01:33:49;;;;;;;0.90;0.90;;;-8.80;99.90;;;;;;5052192;28;20193;-73
2023/03/12 01:36:18;;;;;;;0.90;0.90;;;-8.80;99.90;;;;;;5053428;28;20601;-73
2023/03/12 01:38:43;;;;;;;0.87;0.87;;;-8.80;99.90;;;;;;5053358;28;20217;-73
2023/03/12 01:41:09;;;;;;;0.90;0.90;;;-8.70;99.90;;;;;;5053357;28;20229;-73
2023/03/12 01:43:38;;;;;;;0.90;0.90;;;-8.70;99.90;;;;;;5042693;28;20232;-73
2023/03/12 01:46:23;;;;;;;0.90;0.90;;;-8.60;99.90;;;;;;5053203;28;20565;-74
2023/03/12 01:49:15;;;;;;;1.00;1.00;;;-8.60;99.90;;;;;;5053217;28;20193;-73
2023/03/12 01:52:03;;;;;;;0.90;0.90;;;-8.60;99.90;;;;;;5052943;28;20216;-72
2023/03/12 01:54:34;;;;;;;1.00;1.00;;;-8.70;99.90;;;;;;5052964;28;20193;-75
2023/03/12 01:57:01;;;;;;;0.90;0.90;;;-8.70;99.90;;;;;;5052925;28;20665;-74
2023/03/12 01:59:36;;;;;;;1.00;1.00;;;-8.80;99.90;;;;;;5052899;28;20190;-74
2023/03/12 02:04:32;;;;;;;1.10;1.10;;;-9.00;99.90;;;;;;5047749;28;20676;-67
2023/03/12 02:07:09;;;;;;;0.90;0.90;;;-9.00;99.90;;;;;;5052631;28;20202;-67
2023/03/12 02:09:38;;;;;;;0.90;0.90;;;-9.20;99.90;;;;;;5035020;28;20197;-67
2023/03/12 02:12:04;;;;;;;0.90;0.90;;;-9.20;99.90;;;;;;5035149;28;20193;-67
2023/03/12 02:14:30;;;;;;;0.90;0.90;;;-9.30;99.90;;;;;;5052728;28;20208;-68
2023/03/12 02:16:57;;;;;;;0.90;0.90;;;-9.30;99.90;;;;;;5052311;28;20265;-67
2023/03/12 02:19:32;;;;;;;0.90;0.90;;;-9.40;99.90;;;;;;5052655;28;20194;-68
2023/03/12 02:21:58;;;;;;;0.93;0.93;;;-9.50;99.90;;;;;;5053954;28;20197;-67
2023/03/12 02:24:32;;;;;;;1.00;1.00;;;-9.60;99.90;;;;;;5035516;28;20763;-68
2023/03/12 02:26:58;;;;;;;0.90;0.90;;;-9.50;99.90;;;;;;5037076;28;20709;-67
2023/03/12 02:29:27;;;;;;;0.80;0.80;;;-9.60;99.90;;;;;;5036964;28;20751;-68
2023/03/12 02:31:55;;;;;;;1.00;1.00;;;-9.60;99.90;;;;;;5036968;28;20186;-67
2023/03/12 02:34:21;;;;;;;0.80;0.80;;;-9.70;99.90;;;;;;5036689;28;20235;-67
2023/03/12 02:36:48;;;;;;;0.90;0.90;;;-9.70;99.90;;;;;;5036925;28;20275;-67
2023/03/12 02:39:14;;;;;;;0.90;0.90;;;-9.70;99.90;;;;;;5042344;28;20194;-67
2023/03/12 02:41:47;;;;;;;0.80;0.80;;;-9.70;99.90;;;;;;5056307;28;20207;-67
2023/03/12 02:44:23;;;;;;;0.90;0.90;;;-9.70;99.90;;;;;;5056766;28;20186;-67
2023/03/12 02:46:52;;;;;;;0.80;0.80;;;-9.80;99.90;;;;;;5056666;28;20190;-67
2023/03/12 02:49:20;;;;;;;0.90;0.90;;;-9.80;99.90;;;;;;5038729;28;20201;-67
2023/03/12 02:51:48;;;;;;;1.10;1.10;;;-9.80;99.90;;;;;;5056454;28;20251;-67
2023/03/12 02:54:16;;;;;;;0.90;0.90;;;-9.70;99.90;;;;;;5055296;28;20723;-67
2023/03/12 02:56:42;;;;;;;0.90;0.90;;;-9.80;99.90;;;;;;5054933;28;20200;-67
2023/03/12 02:59:09;;;;;;;1.00;1.00;;;-9.80;99.90;;;;;;5056233;28;20222;-67
2023/03/12 03:01:35;;;;;;;0.90;0.90;;;-9.90;99.90;;;;;;5056078;28;20194;-67
2023/03/12 03:04:03;;;;;;;1.00;1.00;;;-9.90;99.90;;;;;;5055874;28;20255;-67
2023/03/12 03:06:30;;;;;;;0.87;0.87;;;-9.90;99.90;;;;;;5055322;28;20235;-67
2023/03/12 03:08:56;;;;;;;0.90;0.90;;;-9.90;99.90;;;;;;5037719;28;20218;-67
2023/03/12 03:11:23;;;;;;;0.90;0.90;;;-10.00;99.90;;;;;;5055688;28;20214;-68
2023/03/12 03:13:50;;;;;;;0.90;0.90;;;-9.90;99.90;;;;;;5056055;28;20192;-67
2023/03/12 03:16:16;;;;;;;0.90;0.90;;;-9.80;99.90;;;;;;5056225;28;20196;-67
2023/03/12 03:18:42;;;;;;;1.00;1.00;;;-9.90;99.90;;;;;;5038140;28;20288;-67
2023/03/12 03:21:09;;;;;;;0.90;0.90;;;-9.80;99.90;;;;;;5056132;28;20202;-67
2023/03/12 03:23:36;;;;;;;0.90;0.90;;;-9.80;99.90;;;;;;5050605;28;20224;-67
2023/03/12 03:26:02;;;;;;;0.87;0.87;;;-10.00;99.90;;;;;;5035852;28;20209;-67
2023/03/12 03:28:29;;;;;;;0.90;0.90;;;-10.10;99.90;;;;;;5034527;28;20225;-67
2023/03/12 03:31:00;;;;;;;0.90;0.90;;;-10.10;99.90;;;;;;5034546;28;20218;-67
2023/03/12 03:33:28;;;;;;;0.90;0.90;;;-10.00;99.90;;;;;;5033777;28;20247;-66
2023/03/12 03:35:55;;;;;;;1.00;1.00;;;-10.10;99.90;;;;;;5035825;28;20649;-67
2023/03/12 03:38:22;;;;;;;0.90;0.90;;;-10.20;99.90;;;;;;5054733;28;20222;-68
2023/03/12 03:40:48;;;;;;;0.90;0.90;;;-10.40;99.90;;;;;;5054193;28;20201;-67
2023/03/12 03:43:13;;;;;;;0.90;0.90;;;-10.40;99.90;;;;;;5037778;28;20354;-67
2023/03/12 03:45:39;;;;;;;0.90;0.90;;;-10.30;99.90;;;;;;5055403;28;20193;-67
2023/03/12 03:48:05;;;;;;;1.00;1.00;;;-10.30;99.90;;;;;;5055467;28;20699;-67
2023/03/12 03:50:31;;;;;;;0.90;0.90;;;-10.20;99.90;;;;;;5054651;28;20201;-67
2023/03/12 03:52:57;;;;;;;0.83;0.83;;;-10.30;99.90;;;;;;5055325;28;20269;-68
2023/03/12 03:55:23;;;;;;;1.00;1.00;;;-10.30;99.90;;;;;;5055300;28;20265;-68
2023/03/12 03:57:48;;;;;;;0.93;0.93;;;-10.40;99.90;;;;;;5056047;28;20283;-67
2023/03/12 04:00:16;;;;;;;0.87;0.87;;;-10.40;99.90;;;;;;5053824;28;20671;-67
2023/03/12 04:02:43;;;;;;;0.90;0.90;;;-10.40;99.90;;;;;;5045570;28;20407;-67
2023/03/12 04:05:09;;;;;;;0.90;0.90;;;-10.30;99.90;;;;;;5036562;28;20204;-67
2023/03/12 04:07:36;;;;;;;0.90;0.90;;;-10.40;99.90;;;;;;5036955;28;20541;-67
2023/03/12 04:10:03;;;;;;;1.00;1.00;;;-10.50;99.90;;;;;;5037269;28;20205;-67
2023/03/12 04:12:28;;;;;;;1.00;1.00;;;-10.40;99.90;;;;;;5037030;28;20670;-67
2023/03/12 04:14:54;;;;;;;1.00;1.00;;;-10.20;99.90;;;;;;5037148;28;20197;-67
2023/03/12 04:17:20;;;;;;;0.90;0.90;;;-10.20;99.90;;;;;;5054755;28;20672;-68
2023/03/12 04:19:46;;;;;;;0.90;0.90;;;-10.00;99.90;;;;;;5054983;28;20197;-67
2023/03/12 04:22:12;;;;;;;0.90;0.90;;;-10.00;99.90;;;;;;5055005;28;20188;-67
2023/03/12 04:24:38;;;;;;;0.90;0.90;;;-10.10;99.90;;;;;;5054752;28;20280;-67
2023/03/12 04:27:03;;;;;;;0.90;0.90;;;-10.00;99.90;;;;;;5054480;28;20197;-67
2023/03/12 04:29:29;;;;;;;0.90;0.90;;;-10.10;99.90;;;;;;5054054;28;20331;-67
2023/03/12 04:31:55;;;;;;;0.87;0.87;;;-10.10;99.90;;;;;;5054693;28;20193;-67
2023/03/12 04:34:21;;;;;;;0.90;0.90;;;-10.10;99.90;;;;;;5054326;28;20578;-68
2023/03/12 04:36:47;;;;;;;0.90;0.90;;;-10.10;99.90;;;;;;5054610;28;20197;-67
2023/03/12 04:39:19;;;;;;;0.90;0.90;;;-10.00;99.90;;;;;;5054372;28;20237;-67
2023/03/12 04:41:45;;;;;;;0.90;0.90;;;-9.90;99.90;;;;;;5054480;28;20221;-67
2023/03/12 04:44:11;;;;;;;0.90;0.90;;;-9.90;99.90;;;;;;5053695;28;20255;-67
2023/03/12 04:46:37;;;;;;;0.83;0.83;;;-9.70;99.90;;;;;;5036497;28;20326;-67
2023/03/12 04:49:04;;;;;;;0.90;0.90;;;-9.60;99.90;;;;;;5053073;28;20288;-67
2023/03/12 04:51:30;;;;;;;0.87;0.87;;;-9.50;99.90;;;;;;5052775;28;20209;-67
2023/03/12 04:53:56;;;;;;;0.83;0.83;;;-9.60;99.90;;;;;;5054115;28;20198;-67
2023/03/12 04:56:22;;;;;;;0.90;0.90;;;-9.70;99.90;;;;;;5054131;28;20554;-67
2023/03/12 04:58:48;;;;;;;0.90;0.90;;;-9.80;99.90;;;;;;5054068;28;20194;-67
2023/03/12 05:01:29;;;;;;;0.90;0.90;;;-9.80;99.90;;;;;;5054156;28;20204;-67
2023/03/12 05:03:55;;;;;;;0.80;0.80;;;-9.90;99.90;;;;;;5053861;28;20244;-67
2023/03/12 05:06:23;;;;;;;0.87;0.87;;;-9.90;99.90;;;;;;5054176;28;20559;-67
2023/03/12 05:08:48;;;;;;;0.90;0.90;;;-10.10;99.90;;;;;;5054017;28;20217;-66
2023/03/12 05:11:15;;;;;;;0.90;0.90;;;-10.20;99.90;;;;;;5053160;28;20668;-67
2023/03/12 05:13:41;;;;;;;1.03;1.03;;;-10.10;99.90;;;;;;5035793;28;20555;-67
2023/03/12 05:16:08;;;;;;;0.90;0.90;;;-10.10;99.90;;;;;;5053776;28;20243;-67
2023/03/12 05:18:35;;;;;;;0.90;0.90;;;-10.20;99.90;;;;;;5053635;28;20258;-67
2023/03/12 05:21:12;;;;;;;0.90;0.90;;;-10.10;99.90;;;;;;5053711;28;20279;-67
2023/03/12 05:23:41;;;;;;;0.90;0.90;;;-10.10;99.90;;;;;;5047663;28;20190;-68
2023/03/12 05:26:17;;;;;;;0.80;0.80;;;-10.20;99.90;;;;;;5032506;28;20664;-67
2023/03/12 05:28:43;;;;;;;0.90;0.90;;;-10.30;99.90;;;;;;5035119;28;20280;-67
2023/03/12 05:31:11;;;;;;;0.90;0.90;;;-10.00;99.90;;;;;;5052477;28;20700;-67
2023/03/12 05:33:39;;;;;;;0.90;0.90;;;-10.00;99.90;;;;;;5052439;28;20316;-67
2023/03/12 05:36:05;;;;;;;0.90;0.90;;;-9.90;99.90;;;;;;5053389;28;20231;-67
2023/03/12 05:38:31;;;;;;;0.90;0.90;;;-9.80;99.90;;;;;;5053132;28;20225;-68
2023/03/12 05:41:00;;;;;;;0.83;0.83;;;-9.70;99.90;;;;;;5051812;28;20232;-67
2023/03/12 05:43:26;;;;;;;0.90;0.90;;;-9.60;99.90;;;;;;5053111;28;20652;-68
2023/03/12 05:45:53;;;;;;;0.90;0.90;;;-9.50;99.90;;;;;;5053549;28;20201;-67
2023/03/12 05:48:19;;;;;;;0.80;0.80;;;-9.50;99.90;;;;;;5035619;28;20206;-68
2023/03/12 05:50:45;;;;;;;1.00;1.00;;;-9.50;99.90;;;;;;5054275;28;20235;-67
2023/03/12 05:53:11;;;;;;;0.90;0.90;;;-9.40;99.90;;;;;;5035447;28;20197;-67
2023/03/12 05:55:38;;;;;;;0.90;0.90;;;-9.20;99.90;;;;;;5052967;28;20632;-67
2023/03/12 05:58:06;;;;;;;0.90;0.90;;;-9.20;99.90;;;;;;5052628;28;20247;-67
2023/03/12 06:00:36;;;;;;;0.80;0.80;;;-9.20;99.90;;;;;;5053021;28;20225;-67
2023/03/12 06:03:04;;;;;;;0.90;0.90;;;-9.30;99.90;;;;;;5031448;28;20236;-67
2023/03/12 06:05:31;;;;;;;0.97;0.97;;;-9.30;99.90;;;;;;5032965;28;20580;-67
2023/03/12 06:07:57;;;;;;;0.90;0.90;;;-9.30;99.90;;;;;;5031856;28;20221;-67
2023/03/12 06:10:22;;;;;;;0.80;0.80;;;-9.30;99.90;;;;;;5032860;28;20198;-68
2023/03/12 06:12:48;;;;;;;1.00;1.00;;;-9.30;99.90;;;;;;5031831;28;20648;-67
2023/03/12 06:15:14;;;;;;;0.90;0.90;;;-9.30;99.90;;;;;;5033210;28;20677;-67
2023/03/12 06:17:40;;;;;;;0.90;0.90;;;-9.20;99.90;;;;;;5033016;28;21238;-67
2023/03/12 06:20:07;;;;;;;0.90;0.90;;;-9.10;99.90;;;;;;5033092;28;20207;-68
2023/03/12 06:22:32;;;;;;;1.00;1.00;;;-9.00;99.90;;;;;;5032699;28;20603;-67
2023/03/12 06:24:58;;;;;;;0.90;0.90;;;-8.90;99.90;;;;;;5017891;28;20253;-67
2023/03/12 06:27:24;;;;;;;0.80;0.80;;;-8.80;99.90;;;;;;5033039;28;20230;-67
2023/03/12 06:29:50;;;;;;;0.93;0.93;;;-8.70;99.90;;;;;;5033007;28;20208;-67
2023/03/12 06:32:17;;;;;;;0.90;0.90;;;-8.70;99.90;;;;;;5048159;28;20205;-67
2023/03/12 06:34:43;;;;;;;0.90;0.90;;;-8.70;99.90;;;;;;5031525;28;20264;-67
2023/03/12 06:37:10;;;;;;;0.90;0.90;;;-8.60;99.90;;;;;;5032302;28;20194;-68
2023/03/12 06:39:36;;;;;;;0.80;0.80;;;-8.50;99.90;;;;;;5032627;28;20714;-68
2023/03/12 06:42:02;;;;;;;0.90;0.90;;;-8.40;99.90;;;;;;5032824;28;20282;-67
2023/03/12 06:44:28;;;;;;;0.90;0.90;;;-8.40;99.90;;;;;;5031262;28;20198;-68
2023/03/12 06:46:53;;;;;;;0.87;0.87;;;-8.30;99.90;;;;;;5032404;28;20203;-68
2023/03/12 06:49:19;;;;;;;1.10;1.10;;;-8.20;99.90;;;;;;5032689;28;20202;-68
2023/03/12 06:51:45;;;;;;;0.83;0.83;;;-8.10;99.90;;;;;;5033070;28;20220;-68
2023/03/12 06:54:11;;;;;;;0.80;0.80;;;-8.00;99.90;;;;;;5033131;28;20194;-68
2023/03/12 06:56:37;;;;;;;0.90;0.90;;;-7.90;99.90;;;;;;5032489;28;20198;-68
2023/03/12 06:59:03;;;;;;;0.90;0.90;;;-7.80;99.90;;;;;;5031441;28;20226;-68
2023/03/12 07:01:29;;;;;;;0.90;0.90;;;-7.70;99.90;;;;;;5032344;28;20194;-68
2023/03/12 07:03:54;;;;;;;0.80;0.80;;;-7.50;99.90;;;;;;5045074;28;20240;-68
2023/03/12 07:06:23;;;;;;;0.87;0.87;;;-7.30;99.90;;;;;;5052745;28;20193;-68
2023/03/12 07:08:49;;;;;;;1.00;1.00;;;-7.10;99.90;;;;;;5056105;28;20201;-67
2023/03/12 07:11:16;;;;;;;0.83;0.83;;;-6.90;99.90;;;;;;5056264;28;20213;-67
2023/03/12 07:13:43;;;;;;;0.80;0.80;;;-6.80;99.90;;;;;;5054183;28;20204;-68
2023/03/12 07:16:09;;;;;;;0.90;0.90;;;-6.60;99.90;;;;;;5055934;28;20205;-68
2023/03/12 07:18:35;;;;;;;0.90;0.90;;;-6.40;99.90;;;;;;5037942;28;20240;-68
2023/03/12 07:21:01;;;;;;;0.90;0.90;;;-6.30;99.90;;;;;;5038095;28;20205;-67
2023/03/12 07:23:26;;;;;;;0.90;0.90;;;-6.20;99.90;;;;;;5051725;28;20194;-68
2023/03/12 07:25:52;;;;;;;0.90;0.90;;;-6.00;99.90;;;;;;5036174;28;20193;-68
2023/03/12 07:28:19;;;;;;;0.80;0.80;;;-5.90;99.90;;;;;;5044239;28;20305;-68
2023/03/12 07:30:49;;;;;;;1.00;1.00;;;-5.70;99.90;;;;;;5055750;28;20675;-67
2023/03/12 07:33:19;;;;;;;0.90;0.90;;;-5.40;99.90;;;;;;5055978;28;20193;-67
2023/03/12 07:35:46;;;;;;;0.90;0.90;;;-5.20;99.90;;;;;;5055836;28;20196;-68
2023/03/12 07:38:12;;;;;;;0.80;0.80;;;-5.10;99.90;;;;;;5055990;28;20692;-68
2023/03/12 07:40:38;;;;;;;0.87;0.87;;;-4.80;99.90;;;;;;5037387;28;20205;-69
2023/03/12 07:43:09;;;;;;;0.77;0.77;;;-4.60;99.90;;;;;;5056233;28;20193;-68
2023/03/12 07:45:37;;;;;;;0.77;0.77;;;-4.40;99.90;;;;;;5037476;28;20201;-68
2023/03/12 07:48:03;;;;;;;0.80;0.80;;;-4.20;99.90;;;;;;5055479;28;20193;-68
2023/03/12 07:50:28;;;;;;;0.90;0.90;;;-4.10;99.90;;;;;;5037354;28;20216;-68
2023/03/12 07:52:54;;;;;;;0.70;0.70;;;-3.90;99.90;;;;;;5037590;28;20575;-67
2023/03/12 07:55:20;;;;;;;1.10;1.10;;;-3.70;99.90;;;;;;5055440;28;20201;-68
2023/03/12 07:57:46;;;;;;;0.80;0.80;;;-3.50;99.90;;;;;;5054838;28;20221;-68
2023/03/12 08:00:12;;;;;;;0.80;0.80;;;-3.40;99.90;;;;;;5055330;28;20656;-68
2023/03/12 08:02:38;;;;;;;0.80;0.80;;;-3.30;99.90;;;;;;5054463;28;20209;-67
2023/03/12 08:05:05;;;;;;;0.90;0.90;;;-3.30;99.90;;;;;;5055176;28;20308;-67
2023/03/12 08:07:31;;;;;;;0.73;0.73;;;-3.20;99.90;;;;;;5055044;28;20202;-68
2023/03/12 08:10:00;;;;;;;0.82;0.82;;;-3.00;99.90;;;;;;5053843;28;20296;-68
2023/03/12 08:12:27;;;;;;;0.80;0.80;;;-2.90;99.90;;;;;;5054864;28;20198;-68
2023/03/12 08:14:53;;;;;;;0.77;0.77;;;-2.70;99.90;;;;;;5037320;28;20190;-68
2023/03/12 08:17:19;;;;;;;0.70;0.70;;;-2.60;99.90;;;;;;5054722;28;20543;-68
2023/03/12 08:19:45;;;;;;;0.70;0.70;;;-2.40;99.90;;;;;;5052275;28;20200;-68
2023/03/12 08:22:11;;;;;;;0.80;0.80;;;-2.20;99.90;;;;;;5054834;28;20194;-69
2023/03/12 08:24:36;;;;;;;0.70;0.70;;;-2.00;99.90;;;;;;5054153;28;20201;-68
2023/03/12 08:27:02;;;;;;;0.70;0.70;;;-1.80;99.90;;;;;;5054633;28;20243;-68
2023/03/12 08:29:28;;;;;;;0.80;0.80;;;-1.60;99.90;;;;;;5036769;28;20197;-68
2023/03/12 08:31:54;;;;;;;0.70;0.70;;;-1.60;99.90;;;;;;5054761;28;20210;-68
2023/03/12 08:34:20;;;;;;;0.60;0.60;;;-1.40;99.90;;;;;;5054481;28;20197;-70
2023/03/12 08:36:46;;;;;;;0.60;0.60;;;-1.20;99.90;;;;;;5054472;28;20193;-69
2023/03/12 08:39:12;;;;;;;0.70;0.70;;;-1.00;99.90;;;;;;5055392;28;20225;-69
2023/03/12 08:41:37;;;;;;;0.70;0.70;;;-0.80;99.90;;;;;;5054396;28;20197;-69
2023/03/12 08:44:03;;;;;;;0.70;0.70;;;-0.90;99.90;;;;;;5054678;28;20204;-69
2023/03/12 08:46:29;;;;;;;0.70;0.70;;;-0.70;99.90;;;;;;5054254;28;20269;-70
2023/03/12 08:48:55;;;;;;;0.80;0.80;;;-0.60;99.90;;;;;;5054407;28;20255;-70
2023/03/12 08:51:20;;;;;;;0.70;0.70;;;-0.40;99.90;;;;;;5036265;28;20713;-70
2023/03/12 08:53:46;;;;;;;0.60;0.60;;;-0.20;99.90;;;;;;5054472;28;20189;-69
2023/03/12 08:56:12;;;;;;;0.80;0.80;;;0.00;99.90;;;;;;5036510;28;20200;-69
2023/03/12 08:58:38;;;;;;;0.70;0.70;;;0.00;99.90;;;;;;5054176;28;20668;-67
2023/03/12 09:01:11;;;;;;;0.60;0.60;;;0.10;99.90;;;;;;5054248;28;20189;-67
2023/03/12 09:03:37;;;;;;;0.70;0.70;;;0.10;98.70;;;;;;5053704;28;20751;-70
2023/03/12 09:06:14;;;;;;;0.70;0.70;;;0.50;99.90;;;;;;5054162;28;20197;-68
2023/03/12 09:08:41;;;;;;;0.70;0.70;;;0.70;99.90;;;;;;5054037;28;20216;-67
2023/03/12 09:11:09;;;;;;;0.70;0.70;;;1.00;98.70;;;;;;5054067;28;20212;-67
2023/03/12 09:13:35;;;;;;;0.60;0.60;;;1.00;98.40;;;;;;5053675;28;20272;-68
2023/03/12 09:16:02;;;;;;;0.70;0.70;;;0.80;97.20;;;;;;5053987;28;20277;-67
2023/03/12 09:18:32;;;;;;;0.60;0.60;;;1.10;97.10;;;;;;5051743;28;20247;-67
2023/03/12 09:20:58;;;;;;;0.70;0.70;;;1.30;98.30;;;;;;5053423;28;20200;-66
2023/03/12 09:23:26;;;;;;;0.70;0.70;;;1.40;96.20;;;;;;5053427;28;20202;-67
2023/03/12 09:25:53;;;;;;;0.80;0.80;;;1.10;96.20;;;;;;5053797;28;20276;-66
2023/03/12 09:28:19;;;;;;;0.70;0.70;;;1.30;95.90;;;;;;5053696;28;20186;-68
2023/03/12 09:30:46;;;;;;;1.15;1.08;;;1.10;95.40;;;;;;5053278;28;20845;-67
2023/03/12 09:33:13;;;;;;;0.70;0.70;;;1.50;96.50;;;;;;5053677;28;20194;-67
2023/03/12 09:35:40;;;;;;;0.70;0.70;;;1.70;95.60;;;;;;5053294;28;20210;-66
2023/03/12 09:38:06;;;;;;;0.82;0.82;;;2.00;94.30;;;;;;5053677;28;20208;-67
2023/03/12 09:40:36;;;;;;;0.70;0.70;;;2.20;92.90;;;;;;5053371;28;20193;-67
2023/03/12 09:43:21;;;;;;;0.60;0.60;;;2.00;94.10;;;;;;5035575;28;20198;-67
2023/03/12 09:45:48;;;;;;;0.52;0.52;;;1.70;92.60;;;;;;5053445;28;20189;-66
2023/03/12 09:48:20;;;;;;;0.60;0.60;;;1.90;95.60;;;;;;5053540;28;20682;-68
2023/03/12 09:50:49;;;;;;;0.70;0.70;;;2.20;92.70;;;;;;5053212;28;20660;-67
2023/03/12 09:53:26;;;;;;;0.68;0.68;;;2.00;92.70;;;;;;5035585;28;20198;-67
2023/03/12 09:55:54;;;;;;;0.65;0.65;;;2.20;90.70;;;;;;5053323;28;20656;-66
2023/03/12 09:58:30;;;;;;;0.60;0.60;;;2.40;92.30;;;;;;5035036;28;20198;-67
2023/03/12 10:01:37;;;;;;;0.88;0.88;;;2.90;91.60;;;;;;5035243;28;20205;-66
2023/03/12 10:04:42;;;;;;;0.70;0.70;;;2.80;92.50;;;;;;5045364;28;20319;-68
2023/03/12 10:07:11;;;;;;;0.60;0.60;;;3.30;91.70;;;;;;5053188;28;20229;-68
2023/03/12 10:09:39;;;;;;;0.60;0.60;;;3.50;91.60;;;;;;5052973;28;20204;-68
2023/03/12 10:12:35;;;;;;;0.50;0.50;;;3.20;89.40;;;;;;5052901;28;20703;-72
2023/03/12 10:15:33;;;;;;;0.77;0.77;;;3.30;90.30;;;;;;5051790;28;20198;-69
2023/03/12 10:18:19;;;;;;;0.50;0.50;;;3.30;88.50;;;;;;5052984;28;20201;-69
2023/03/12 10:21:03;;;;;;;1.55;1.45;;;2.90;88.10;;;;;;5052260;28;20216;-71
2023/03/12 10:23:43;;;;;;;0.60;0.60;;;3.10;90.90;;;;;;5051911;28;20192;-70
2023/03/12 10:26:17;;;;;;;0.65;0.65;;;3.60;90.70;;;;;;5052420;28;20690;-69
2023/03/12 10:28:48;;;;;;;0.70;0.70;;;3.90;89.60;;;;;;5052200;28;20309;-69
2023/03/12 10:31:25;;;;;;;0.60;0.60;;;3.90;86.10;;;;;;5035386;28;20671;-69
2023/03/12 10:33:55;;;;;;;0.70;0.70;;;3.90;88.00;;;;;;5051042;28;20225;-68
2023/03/12 10:36:32;;;;;;;0.70;0.70;;;3.60;86.50;;;;;;5052738;28;20618;-69
2023/03/12 10:38:58;;;;;;;0.60;0.60;;;3.70;90.30;;;;;;5052733;28;20217;-69
2023/03/12 10:41:28;;;;;;;0.63;0.63;;;3.30;85.30;;;;;;5052739;28;20248;-69
2023/03/12 10:43:59;;;;;;;0.70;0.70;;;3.50;90.20;;;;;;5055248;28;20275;-70
2023/03/12 10:47:00;;;;;;;0.77;0.77;;;3.50;85.90;;;;;;5055237;28;20233;-70
2023/03/12 10:49:32;;;;;;;0.70;0.70;;;3.60;89.00;;;;;;5037141;28;20681;-71
2023/03/12 10:52:16;;;;;;;0.70;0.70;;;3.60;82.70;;;;;;5056647;28;20650;-70
2023/03/12 10:54:43;;;;;;;0.80;0.80;;;3.90;87.20;;;;;;5055866;28;20186;-69
2023/03/12 10:57:11;;;;;;;0.68;0.68;;;4.00;84.40;;;;;;5038624;28;20583;-71
2023/03/12 10:59:42;;;;;;;0.70;0.70;;;4.10;82.80;;;;;;5038500;28;20204;-70
2023/03/12 11:02:40;;;;;;;0.70;0.70;;;4.00;84.70;;;;;;5056280;28;20186;-69
2023/03/12 11:05:29;;;;;;;0.80;0.80;;;4.00;86.60;;;;;;5055669;28;20216;-70
2023/03/12 11:07:55;;;;;;;0.70;0.70;;;3.90;80.50;;;;;;5039212;28;20202;-69
2023/03/12 11:10:42;;;;;;;0.50;0.50;;;3.70;83.30;;;;;;5034227;28;20333;-70
2023/03/12 11:13:24;;;;;;;1.40;1.25;;;3.50;82.60;;;;;;5042112;28;20201;-69
2023/03/12 11:15:51;;;;;;;0.70;0.70;;;3.50;82.90;;;;;;5056310;28;20542;-69
2023/03/12 11:18:23;;;;;;;0.80;0.80;;;3.40;82.00;;;;;;5056124;28;20186;-70
2023/03/12 11:20:52;;;;;;;0.70;0.70;;;3.50;82.50;;;;;;5055644;28;20208;-70
2023/03/12 11:23:29;;;;;;;0.80;0.80;;;3.30;81.10;;;;;;5055288;28;20202;-69
2023/03/12 11:26:10;;;;;;;0.70;0.70;;;3.50;82.70;;;;;;5037493;28;20615;-68
2023/03/12 11:28:54;;;;;;;0.70;0.70;;;3.90;83.60;;;;;;5054587;28;20783;-69
2023/03/12 11:31:29;;;;;;;0.70;0.70;;;4.10;80.60;;;;;;5055739;28;20201;-69
2023/03/12 11:34:05;;;;;;;0.70;0.70;;;4.20;77.80;;;;;;5038002;28;20663;-69
2023/03/12 11:36:39;;;;;;;0.70;0.70;;;4.20;80.10;;;;;;5055579;28;20189;-69
2023/03/12 11:39:19;;;;;;;0.60;0.60;;;4.40;80.20;;;;;;5055494;28;20190;-68
2023/03/12 11:41:57;;;;;;;0.70;0.70;;;4.40;78.10;;;;;;5055756;28;20543;-69
2023/03/12 11:44:32;;;;;;;0.60;0.60;;;4.50;78.00;;;;;;5055442;28;20221;-69
2023/03/12 11:47:26;;;;;;;0.70;0.70;;;4.50;77.10;;;;;;5055695;28;20185;-68
2023/03/12 11:50:13;;;;;;;0.52;0.52;;;4.70;80.10;;;;;;5055501;28;20197;-69
2023/03/12 11:53:11;;;;;;;0.65;0.65;;;4.80;78.60;;;;;;5055150;28;20311;-69
2023/03/12 11:55:55;;;;;;;0.70;0.70;;;5.20;78.60;;;;;;5055345;28;20192;-69
2023/03/12 11:58:46;;;;;;;0.60;0.60;;;5.00;77.10;;;;;;5053924;28;20657;-70
2023/03/12 12:01:20;;;;;;;0.70;0.70;;;5.10;75.40;;;;;;5055318;28;20197;-69
2023/03/12 12:04:01;;;;;;;0.70;0.70;;;5.50;76.80;;;;;;5054694;28;20236;-69
2023/03/12 12:06:39;;;;;;;0.70;0.70;;;5.60;75.20;;;;;;5055029;28;20208;-69
2023/03/12 12:09:11;;;;;;;0.73;0.73;;;5.30;70.90;;;;;;5055039;28;20240;-69
2023/03/12 12:12:05;;;;;;;0.70;0.70;;;4.80;72.30;;;;;;5054877;28;20206;-68
2023/03/12 12:14:30;;;;;;;0.70;0.70;;;4.90;75.30;;;;;;5054888;28;20193;-69
2023/03/12 12:17:11;;;;;;;0.65;0.65;;;5.10;75.30;;;;;;5055010;28;20190;-70
2023/03/12 12:19:53;;;;;;;0.63;0.63;;;4.40;70.30;;;;;;5053652;28;20193;-70
2023/03/12 12:22:58;;;;;;;0.70;0.70;;;4.20;72.00;;;;;;5054945;28;20541;-71
2023/03/12 12:25:29;;;;;;;0.60;0.60;;;4.40;76.60;;;;;;4999869;28;20218;-70
2023/03/12 12:28:36;;;;;;;0.70;0.70;;;4.00;71.80;;;;;;5034947;28;20673;-71
2023/03/12 12:31:07;;;;;;;1.17;1.10;;;3.80;74.20;;;;;;5011007;28;20217;-71
2023/03/12 12:33:46;;;;;;;0.73;0.73;;;3.50;76.30;;;;;;5034079;28;20194;-71
2023/03/12 12:36:13;;;;;;;0.80;0.80;;;3.30;76.40;;;;;;5033014;28;20197;-70
2023/03/12 12:39:04;;;;;;;0.77;0.77;;;3.60;75.60;;;;;;5034271;28;20399;-69
2023/03/12 12:41:52;;;;;;;0.80;0.80;;;3.80;75.40;;;;;;5033117;28;20206;-70
2023/03/12 12:44:24;;;;;;;0.60;0.60;;;3.50;78.00;;;;;;5033269;28;20669;-70
2023/03/12 12:46:57;;;;;;;0.80;0.80;;;3.90;75.00;;;;;;5034617;28;20194;-70
2023/03/12 12:49:34;;;;;;;0.70;0.70;;;3.90;72.10;;;;;;5033156;28;20202;-70
2023/03/12 12:52:05;;;;;;;0.73;0.73;;;3.70;71.50;;;;;;5034493;28;20221;-70
2023/03/12 12:55:03;;;;;;;0.50;0.50;;;3.80;74.30;;;;;;5034179;28;20190;-70
2023/03/12 12:57:45;;;;;;;0.80;0.80;;;3.80;72.30;;;;;;5034177;28;20201;-70
2023/03/12 13:00:27;;;;;;;0.60;0.60;;;3.70;76.40;;;;;;5047929;28;20220;-71
2023/03/12 13:02:56;;;;;;;0.70;0.70;;;4.00;74.20;;;;;;5053840;28;20312;-70
2023/03/12 13:05:25;;;;;;;0.80;0.80;;;4.00;71.50;;;;;;5035502;28;20217;-71